createdAt,value
2019-01-08T00:01:26.174Z,6.40
2019-01-08T00:03:55.053Z,6.40
2019-01-08T00:06:23.760Z,6.40
2019-01-08T00:08:52.456Z,6.40
2019-01-08T00:11:21.260Z,6.40
2019-01-08T00:13:50.209Z,6.40
2019-01-08T00:16:19.845Z,6.40
2019-01-08T00:18:48.764Z,6.30
2019-01-08T00:21:17.436Z,6.40
2019-01-08T00:23:46.193Z,6.40
2019-01-08T00:26:15.162Z,6.40
2019-01-08T00:28:44.146Z,6.40
2019-01-08T00:31:13.101Z,6.40
2019-01-08T00:33:41.849Z,6.50
2019-01-08T00:36:11.535Z,6.50
2019-01-08T00:38:40.202Z,6.50
2019-01-08T00:41:08.934Z,6.50
2019-01-08T00:43:37.895Z,6.50
2019-01-08T00:46:09.789Z,6.50
2019-01-08T00:48:38.681Z,6.50
2019-01-08T00:51:07.884Z,6.50
2019-01-08T00:53:36.633Z,6.50
2019-01-08T00:56:05.365Z,6.50
2019-01-08T00:58:34.825Z,6.40
2019-01-08T01:01:03.560Z,6.50
2019-01-08T01:03:32.299Z,6.40
2019-01-08T01:06:00.995Z,6.40
2019-01-08T01:08:29.662Z,6.50
2019-01-08T01:10:58.543Z,6.40
2019-01-08T01:13:27.258Z,6.40
2019-01-08T01:15:56.223Z,6.50
2019-01-08T01:18:26.589Z,6.40
2019-01-08T01:20:57.610Z,6.40
2019-01-08T01:23:26.318Z,6.50
2019-01-08T01:25:56.710Z,6.50
2019-01-08T01:28:28.483Z,6.50
2019-01-08T01:30:59.990Z,6.40
2019-01-08T01:33:29.382Z,6.40
2019-01-08T01:36:01.354Z,6.40
2019-01-08T01:38:30.526Z,6.40
2019-01-08T01:41:02.855Z,6.40
2019-01-08T01:43:31.816Z,6.40
2019-01-08T01:46:00.510Z,6.40
2019-01-08T01:48:29.263Z,6.40
2019-01-08T01:51:02.462Z,6.40
2019-01-08T01:53:31.431Z,6.40
2019-01-08T01:56:00.262Z,6.40
2019-01-08T01:58:29.169Z,6.50
2019-01-08T02:00:59.147Z,6.50
2019-01-08T02:03:28.402Z,6.50
2019-01-08T02:05:58.999Z,6.50
2019-01-08T02:08:27.924Z,6.50
2019-01-08T02:10:59.886Z,6.50
2019-01-08T02:13:28.569Z,6.60
2019-01-08T02:15:57.610Z,6.60
2019-01-08T02:18:26.394Z,6.60
2019-01-08T02:20:55.287Z,6.60
2019-01-08T02:23:24.077Z,6.60
2019-01-08T02:25:53.206Z,6.60
2019-01-08T02:28:22.403Z,6.70
2019-01-08T02:30:51.330Z,6.70
2019-01-08T02:33:20.135Z,6.70
2019-01-08T02:35:49.010Z,6.70
2019-01-08T02:38:17.711Z,6.70
2019-01-08T02:40:51.045Z,6.70
2019-01-08T02:43:20.409Z,6.80
2019-01-08T02:45:49.247Z,6.80
2019-01-08T02:48:18.183Z,6.80
2019-01-08T02:50:48.421Z,6.80
2019-01-08T02:53:17.484Z,6.70
2019-01-08T02:55:46.946Z,6.80
2019-01-08T02:58:15.790Z,6.80
2019-01-08T03:00:44.810Z,6.80
2019-01-08T03:03:14.060Z,6.80
2019-01-08T03:05:42.887Z,6.80
2019-01-08T03:08:11.647Z,6.80
2019-01-08T03:10:41.448Z,6.80
2019-01-08T03:13:10.145Z,6.80
2019-01-08T03:15:39.758Z,6.80
2019-01-08T03:18:08.534Z,6.90
2019-01-08T03:20:38.756Z,6.90
2019-01-08T03:23:07.458Z,7.00
2019-01-08T03:25:36.292Z,6.90
2019-01-08T03:28:05.040Z,6.90
2019-01-08T03:30:33.710Z,6.90
2019-01-08T03:33:02.962Z,7.00
2019-01-08T03:35:31.874Z,7.00
2019-01-08T03:38:00.557Z,7.00
2019-01-08T03:40:29.285Z,7.00
2019-01-08T03:42:58.257Z,7.00
2019-01-08T03:45:27.467Z,7.00
2019-01-08T03:47:56.482Z,7.00
2019-01-08T03:50:25.362Z,6.80
2019-01-08T03:52:54.294Z,6.80
2019-01-08T03:55:23.738Z,6.70
2019-01-08T03:57:53.356Z,6.60
2019-01-08T04:00:22.553Z,6.60
2019-01-08T04:02:51.646Z,6.50
2019-01-08T04:05:20.450Z,6.40
2019-01-08T04:07:49.582Z,6.30
2019-01-08T04:10:21.466Z,6.30
2019-01-08T04:12:50.568Z,6.20
2019-01-08T04:15:19.261Z,6.20
2019-01-08T04:17:48.318Z,6.10
2019-01-08T04:20:17.250Z,6.10
2019-01-08T04:22:46.211Z,6.10
2019-01-08T04:25:15.036Z,6.10
2019-01-08T04:27:43.751Z,6.00
2019-01-08T04:30:12.691Z,6.00
2019-01-08T04:32:41.458Z,6.10
2019-01-08T04:35:10.392Z,6.10
2019-01-08T04:37:39.379Z,6.10
2019-01-08T04:40:08.200Z,6.10
2019-01-08T04:42:36.876Z,6.10
2019-01-08T04:45:05.941Z,6.00
2019-01-08T04:47:34.753Z,6.00
2019-01-08T04:50:03.559Z,6.00
2019-01-08T04:52:32.285Z,6.00
2019-01-08T04:55:01.059Z,6.00
2019-01-08T04:57:30.636Z,6.00
2019-01-08T04:59:59.424Z,6.00
2019-01-08T05:02:28.115Z,5.90
2019-01-08T05:04:57.194Z,5.90
2019-01-08T05:07:25.906Z,5.90
2019-01-08T05:09:54.721Z,5.90
2019-01-08T05:12:23.434Z,5.90
2019-01-08T05:14:52.472Z,5.90
2019-01-08T05:17:21.595Z,5.90
2019-01-08T05:19:50.390Z,5.90
2019-01-08T05:22:19.575Z,5.90
2019-01-08T05:24:51.712Z,5.90
2019-01-08T05:27:20.436Z,5.90
2019-01-08T05:29:49.218Z,5.90
2019-01-08T05:32:18.256Z,6.00
2019-01-08T05:34:46.940Z,6.00
2019-01-08T05:37:15.627Z,6.10
2019-01-08T05:39:44.526Z,6.10
2019-01-08T05:42:13.667Z,6.20
2019-01-08T05:44:42.689Z,6.20
2019-01-08T05:47:11.526Z,6.30
2019-01-08T05:49:40.395Z,6.30
2019-01-08T05:52:09.359Z,6.30
2019-01-08T05:54:38.353Z,6.40
2019-01-08T05:57:07.298Z,6.40
2019-01-08T05:59:36.103Z,6.40
2019-01-08T06:02:05.042Z,6.40
2019-01-08T06:04:33.994Z,6.40
2019-01-08T06:07:02.697Z,6.50
2019-01-08T06:09:31.644Z,6.50
2019-01-08T06:12:00.603Z,6.50
2019-01-08T06:14:29.892Z,6.60
2019-01-08T06:16:58.884Z,6.60
2019-01-08T06:19:27.787Z,6.60
2019-01-08T06:21:56.821Z,6.60
2019-01-08T06:24:25.556Z,6.70
2019-01-08T06:26:54.259Z,6.70
2019-01-08T06:29:23.050Z,6.70
2019-01-08T06:31:51.740Z,6.70
2019-01-08T06:34:20.838Z,6.70
2019-01-08T06:36:49.609Z,6.70
2019-01-08T06:39:18.476Z,6.60
2019-01-08T06:41:49.485Z,6.70
2019-01-08T06:44:18.221Z,6.60
2019-01-08T06:46:46.929Z,6.70
2019-01-08T06:49:15.775Z,6.70
2019-01-08T06:51:44.629Z,6.70
2019-01-08T06:54:13.370Z,6.70
2019-01-08T06:56:42.036Z,6.70
2019-01-08T06:59:10.728Z,6.70
2019-01-08T07:01:39.482Z,6.70
2019-01-08T07:04:08.148Z,6.70
2019-01-08T07:06:36.903Z,6.70
2019-01-08T07:09:07.192Z,6.70
2019-01-08T07:11:35.870Z,6.70
2019-01-08T07:14:04.905Z,6.70
2019-01-08T07:16:33.595Z,6.70
2019-01-08T07:19:02.279Z,6.80
2019-01-08T07:21:30.965Z,6.80
2019-01-08T07:23:59.663Z,6.80
2019-01-08T07:26:28.354Z,6.80
2019-01-08T07:28:57.121Z,6.80
2019-01-08T07:31:25.800Z,6.90
2019-01-08T07:33:54.789Z,6.80
2019-01-08T07:36:23.495Z,6.80
2019-01-08T07:38:52.202Z,6.80
2019-01-08T07:41:20.900Z,6.90
2019-01-08T07:43:50.803Z,6.80
2019-01-08T07:46:19.534Z,6.80
2019-01-08T07:48:48.518Z,6.80
2019-01-08T07:51:18.315Z,6.70
2019-01-08T07:53:47.041Z,6.70
2019-01-08T07:56:15.947Z,6.70
2019-01-08T07:58:44.973Z,6.80
2019-01-08T08:01:13.645Z,6.80
2019-01-08T08:03:42.602Z,6.80
2019-01-08T08:06:12.128Z,6.90
2019-01-08T08:08:40.814Z,6.80
2019-01-08T08:11:09.529Z,6.80
2019-01-08T08:13:38.274Z,6.80
2019-01-08T08:16:06.935Z,6.80
2019-01-08T08:18:35.855Z,6.80
2019-01-08T08:21:04.614Z,6.80
2019-01-08T08:23:33.266Z,6.80
2019-01-08T08:26:01.943Z,6.70
2019-01-08T08:28:30.658Z,6.80
2019-01-08T08:30:59.361Z,6.70
2019-01-08T08:33:28.583Z,6.70
2019-01-08T08:35:57.568Z,6.70
2019-01-08T08:38:26.246Z,6.70
2019-01-08T08:40:57.133Z,6.70
2019-01-08T08:43:26.074Z,6.70
2019-01-08T08:45:55.094Z,6.70
2019-01-08T08:48:23.970Z,6.80
2019-01-08T08:50:53.594Z,6.80
2019-01-08T08:53:23.111Z,6.90
2019-01-08T08:55:51.978Z,7.00
2019-01-08T08:58:20.670Z,7.00
2019-01-08T09:00:52.277Z,7.00
2019-01-08T09:03:21.035Z,7.00
2019-01-08T09:05:51.222Z,7.00
2019-01-08T09:08:19.895Z,6.90
2019-01-08T09:10:48.849Z,6.90
2019-01-08T09:13:17.561Z,6.90
2019-01-08T09:15:46.474Z,7.00
2019-01-08T09:18:15.138Z,7.00
2019-01-08T09:20:44.074Z,7.10
2019-01-08T09:23:12.822Z,7.10
2019-01-08T09:25:43.932Z,7.10
2019-01-08T09:28:12.630Z,7.10
2019-01-08T09:30:41.583Z,7.00
2019-01-08T09:33:10.573Z,6.90
2019-01-08T09:35:42.427Z,6.90
2019-01-08T09:38:11.091Z,6.90
2019-01-08T09:40:39.855Z,6.90
2019-01-08T09:43:08.916Z,6.90
2019-01-08T09:45:37.722Z,6.90
2019-01-08T09:48:06.583Z,6.90
2019-01-08T09:50:35.500Z,7.00
2019-01-08T09:53:04.237Z,6.90
2019-01-08T09:55:33.875Z,6.90
2019-01-08T09:58:02.563Z,6.90
2019-01-08T10:00:31.315Z,6.90
2019-01-08T10:03:00.331Z,6.80
2019-01-08T10:05:29.644Z,6.80
2019-01-08T10:07:58.327Z,6.80
2019-01-08T10:10:27.110Z,6.90
2019-01-08T10:12:55.922Z,6.90
2019-01-08T10:15:24.624Z,6.80
2019-01-08T10:17:53.350Z,6.90
2019-01-08T10:20:22.038Z,6.90
2019-01-08T10:22:50.989Z,7.00
2019-01-08T10:25:19.724Z,7.00
2019-01-08T10:27:48.747Z,7.00
2019-01-08T10:30:17.462Z,7.00
2019-01-08T10:32:46.149Z,7.00
2019-01-08T10:35:15.046Z,7.00
2019-01-08T10:37:44.066Z,7.00
2019-01-08T10:40:12.741Z,6.90
2019-01-08T10:42:41.449Z,7.00
2019-01-08T10:45:10.654Z,7.00
2019-01-08T10:47:39.318Z,7.00
2019-01-08T10:50:08.327Z,7.00
2019-01-08T10:52:36.991Z,7.00
2019-01-08T10:55:05.896Z,7.00
2019-01-08T10:57:35.202Z,7.00
2019-01-08T11:00:04.731Z,7.10
2019-01-08T11:02:33.415Z,7.20
2019-01-08T11:05:02.158Z,7.10
2019-01-08T11:07:31.350Z,7.10
2019-01-08T11:10:00.773Z,7.10
2019-01-08T11:12:29.675Z,7.10
2019-01-08T11:14:58.583Z,7.00
2019-01-08T11:17:27.321Z,7.00
2019-01-08T11:19:56.423Z,7.00
2019-01-08T11:22:25.487Z,7.00
2019-01-08T11:24:54.172Z,7.00
2019-01-08T11:27:23.743Z,7.00
2019-01-08T11:29:52.939Z,6.90
2019-01-08T11:32:21.991Z,6.90
2019-01-08T11:34:51.342Z,6.90
2019-01-08T11:37:20.167Z,6.90
2019-01-08T11:39:49.083Z,6.90
2019-01-08T11:42:18.016Z,6.80
2019-01-08T11:44:46.759Z,6.90
2019-01-08T11:47:15.445Z,7.00
2019-01-08T11:49:44.258Z,7.00
2019-01-08T11:52:12.977Z,7.00
2019-01-08T11:54:41.849Z,7.10
2019-01-08T11:57:10.961Z,7.00
2019-01-08T11:59:39.937Z,7.10
2019-01-08T12:02:08.980Z,7.10
2019-01-08T12:04:38.060Z,7.00
2019-01-08T12:07:06.894Z,7.10
2019-01-08T12:09:35.571Z,7.10
2019-01-08T12:12:04.254Z,7.10
2019-01-08T12:14:33.170Z,7.10
2019-01-08T12:17:01.911Z,7.20
2019-01-08T12:19:30.700Z,7.20
2019-01-08T12:21:59.646Z,7.20
2019-01-08T12:24:28.339Z,7.20
2019-01-08T12:26:57.373Z,7.30
2019-01-08T12:29:26.088Z,7.30
2019-01-08T12:31:55.863Z,7.40
2019-01-08T12:34:25.044Z,7.40
2019-01-08T12:36:54.211Z,7.50
2019-01-08T12:39:22.886Z,7.50
2019-01-08T12:41:51.830Z,7.50
2019-01-08T12:44:20.518Z,7.40
2019-01-08T12:46:49.353Z,7.40
2019-01-08T12:49:18.187Z,7.40
2019-01-08T12:51:46.914Z,7.40
2019-01-08T12:54:15.675Z,7.50
2019-01-08T12:56:44.632Z,7.50
2019-01-08T12:59:13.374Z,7.50
2019-01-08T13:01:43.098Z,7.40
2019-01-08T13:04:12.339Z,7.50
2019-01-08T13:06:41.032Z,7.50
2019-01-08T13:09:10.042Z,7.60
2019-01-08T13:11:38.781Z,7.60
2019-01-08T13:14:07.714Z,7.50
2019-01-08T13:16:36.732Z,7.50
2019-01-08T13:19:05.652Z,7.50
2019-01-08T13:21:34.326Z,7.50
2019-01-08T13:24:03.022Z,7.50
2019-01-08T13:26:32.085Z,7.50
2019-01-08T13:29:00.782Z,7.50
2019-01-08T13:31:29.557Z,7.50
2019-01-08T13:33:59.736Z,7.50
2019-01-08T13:36:28.540Z,7.50
2019-01-08T13:38:57.263Z,7.60
2019-01-08T13:41:26.114Z,7.50
2019-01-08T13:43:55.129Z,7.50
2019-01-08T13:46:25.494Z,7.50
2019-01-08T13:48:54.835Z,7.50
2019-01-08T13:51:23.837Z,7.50
2019-01-08T13:53:52.542Z,7.50
2019-01-08T13:56:21.460Z,7.40
2019-01-08T13:58:50.181Z,7.40
2019-01-08T14:01:19.108Z,7.40
2019-01-08T14:03:48.176Z,7.40
2019-01-08T14:06:17.117Z,7.30
2019-01-08T14:08:46.063Z,7.40
2019-01-08T14:11:15.022Z,7.40
2019-01-08T14:13:43.770Z,7.30
2019-01-08T14:16:12.491Z,7.30
2019-01-08T14:18:41.287Z,7.40
2019-01-08T14:21:10.009Z,7.40
2019-01-08T14:23:38.992Z,7.50
2019-01-08T14:26:07.715Z,7.50
2019-01-08T14:28:39.029Z,7.50
2019-01-08T14:31:07.730Z,7.50
2019-01-08T14:33:38.259Z,7.50
2019-01-08T14:36:06.978Z,7.50
2019-01-08T14:38:35.750Z,7.50
2019-01-08T14:41:04.871Z,7.50
2019-01-08T14:43:33.805Z,7.50
2019-01-08T14:46:02.781Z,7.50
2019-01-08T14:48:31.674Z,7.50
2019-01-08T14:51:00.379Z,7.40
2019-01-08T14:53:29.444Z,7.40
2019-01-08T14:55:58.747Z,7.30
2019-01-08T14:58:28.071Z,7.40
2019-01-08T15:00:57.359Z,7.30
2019-01-08T15:03:26.279Z,7.30
2019-01-08T15:06:00.277Z,7.30
2019-01-08T15:08:29.315Z,7.30
2019-01-08T15:10:58.240Z,7.30
2019-01-08T15:13:26.983Z,7.20
2019-01-08T15:15:58.459Z,7.20
2019-01-08T15:18:27.386Z,7.20
2019-01-08T15:20:56.330Z,7.20
2019-01-08T15:23:25.335Z,7.20
2019-01-08T15:25:54.297Z,7.20
2019-01-08T15:28:22.981Z,7.10
2019-01-08T15:30:51.767Z,7.10
2019-01-08T15:33:21.441Z,7.00
2019-01-08T15:35:50.391Z,7.00
2019-01-08T15:38:19.298Z,6.90
2019-01-08T15:40:51.344Z,7.00
2019-01-08T15:43:20.389Z,6.90
2019-01-08T15:45:52.316Z,6.80
2019-01-08T15:48:24.356Z,6.90
2019-01-08T15:50:53.216Z,6.90
2019-01-08T15:53:29.535Z,6.80
2019-01-08T15:56:00.016Z,6.80
2019-01-08T15:58:29.211Z,6.70
2019-01-08T16:00:58.739Z,6.70
2019-01-08T16:03:27.690Z,6.70
2019-01-08T16:06:00.109Z,6.60
2019-01-08T16:08:29.994Z,6.60
2019-01-08T16:11:01.599Z,6.50
2019-01-08T16:13:30.325Z,6.50
2019-01-08T16:15:59.171Z,6.50
2019-01-08T16:18:28.158Z,6.60
2019-01-08T16:20:57.108Z,6.60
2019-01-08T16:23:29.557Z,6.60
2019-01-08T16:25:56.822Z,6.50
2019-01-08T16:28:28.755Z,6.50
2019-01-08T16:30:57.786Z,6.40
2019-01-08T16:33:26.830Z,6.40
2019-01-08T16:35:56.856Z,6.40
2019-01-08T16:38:25.935Z,6.40
2019-01-08T16:40:57.391Z,6.40
2019-01-08T16:43:26.244Z,6.40
2019-01-08T16:45:58.444Z,6.50
2019-01-08T16:48:27.189Z,6.60
2019-01-08T16:50:56.698Z,6.60
2019-01-08T16:53:27.882Z,6.50
2019-01-08T16:55:56.731Z,6.00
2019-01-08T16:58:25.783Z,5.40
2019-01-08T17:00:58.429Z,5.20
2019-01-08T17:03:27.241Z,5.20
2019-01-08T17:05:58.533Z,5.20
2019-01-08T17:08:27.891Z,5.30
2019-01-08T17:10:57.258Z,5.40
2019-01-08T17:13:26.558Z,5.40
2019-01-08T17:15:58.003Z,5.50
2019-01-08T17:18:28.515Z,5.50
2019-01-08T17:20:57.408Z,5.50
2019-01-08T17:23:26.473Z,5.50
2019-01-08T17:25:56.366Z,5.50
2019-01-08T17:28:25.070Z,5.50
2019-01-08T17:30:55.498Z,5.60
2019-01-08T17:33:33.403Z,5.60
2019-01-08T17:35:55.008Z,5.60
2019-01-08T17:38:24.481Z,5.60
2019-01-08T17:40:53.347Z,5.60
2019-01-08T17:43:22.078Z,5.60
2019-01-08T17:45:51.229Z,5.60
2019-01-08T17:48:20.335Z,5.60
2019-01-08T17:50:49.315Z,5.60
2019-01-08T17:53:18.499Z,5.60
2019-01-08T17:55:47.577Z,5.50
2019-01-08T17:58:36.319Z,5.50
2019-01-08T18:01:11.013Z,5.50
2019-01-08T18:03:42.863Z,5.50
2019-01-08T18:06:10.455Z,5.40
2019-01-08T18:08:39.263Z,5.40
2019-01-08T18:11:08.439Z,5.40
2019-01-08T18:13:37.344Z,5.40
2019-01-08T18:16:06.395Z,5.40
2019-01-08T18:18:35.459Z,5.40
2019-01-08T18:21:04.292Z,5.30
2019-01-08T18:23:33.376Z,5.30
2019-01-08T18:26:02.307Z,5.30
2019-01-08T18:28:31.474Z,5.30
2019-01-08T18:31:00.223Z,5.30
2019-01-08T18:33:31.038Z,5.20
2019-01-08T18:36:00.161Z,5.10
2019-01-08T18:38:28.985Z,5.10
2019-01-08T18:40:58.101Z,5.10
2019-01-08T18:43:27.102Z,5.10
2019-01-08T18:45:55.986Z,5.00
2019-01-08T18:48:24.721Z,5.00
2019-01-08T18:50:54.008Z,5.00
2019-01-08T18:53:22.778Z,5.00
2019-01-08T18:55:51.511Z,5.00
2019-01-08T18:58:20.228Z,5.00
2019-01-08T19:00:49.078Z,4.90
2019-01-08T19:03:17.927Z,4.90
2019-01-08T19:05:46.960Z,4.90
2019-01-08T19:08:15.734Z,4.90
2019-01-08T19:10:44.878Z,4.90
2019-01-08T19:13:13.631Z,4.90
2019-01-08T19:15:44.531Z,4.80
2019-01-08T19:18:13.233Z,4.80
2019-01-08T19:20:41.967Z,4.80
2019-01-08T19:23:10.707Z,4.80
2019-01-08T19:25:39.958Z,4.70
2019-01-08T19:28:08.939Z,4.80
2019-01-08T19:30:39.341Z,4.70
2019-01-08T19:33:08.287Z,4.80
2019-01-08T19:35:36.987Z,4.80
2019-01-08T19:38:06.059Z,4.80
2019-01-08T19:40:34.739Z,4.80
2019-01-08T19:43:03.809Z,4.70
2019-01-08T19:45:32.514Z,4.70
2019-01-08T19:48:01.223Z,4.70
2019-01-08T19:50:30.408Z,4.70
2019-01-08T19:52:59.237Z,4.70
2019-01-08T19:55:28.766Z,4.70
2019-01-08T19:57:57.643Z,4.70
2019-01-08T20:00:26.484Z,4.70
2019-01-08T20:02:55.190Z,4.70
2019-01-08T20:05:23.907Z,4.70
2019-01-08T20:07:52.954Z,4.70
2019-01-08T20:10:21.842Z,4.80
2019-01-08T20:12:52.202Z,4.80
2019-01-08T20:15:21.140Z,4.80
2019-01-08T20:17:50.073Z,4.90
2019-01-08T20:20:18.847Z,4.90
2019-01-08T20:22:47.570Z,4.90
2019-01-08T20:25:16.519Z,4.80
2019-01-08T20:27:45.591Z,4.80
2019-01-08T20:30:14.553Z,4.80
2019-01-08T20:32:43.225Z,4.70
2019-01-08T20:35:12.020Z,4.70
2019-01-08T20:37:40.726Z,4.80
2019-01-08T20:40:10.129Z,4.80
2019-01-08T20:42:39.068Z,4.70
2019-01-08T20:45:07.839Z,4.70
2019-01-08T20:47:36.750Z,4.60
2019-01-08T20:50:05.715Z,4.60
2019-01-08T20:52:34.530Z,4.60
2019-01-08T20:55:03.344Z,4.60
2019-01-08T20:57:32.095Z,4.60
2019-01-08T21:00:00.995Z,4.60
2019-01-08T21:02:29.662Z,4.70
2019-01-08T21:04:58.830Z,4.60
2019-01-08T21:07:27.939Z,4.60
2019-01-08T21:09:56.632Z,4.60
2019-01-08T21:12:25.384Z,4.70
2019-01-08T21:14:54.118Z,4.70
2019-01-08T21:17:22.792Z,4.60
2019-01-08T21:19:51.901Z,4.60
2019-01-08T21:22:20.610Z,4.70
2019-01-08T21:24:49.536Z,4.70
2019-01-08T21:27:18.552Z,4.70
2019-01-08T21:29:47.259Z,4.70
2019-01-08T21:32:16.146Z,4.60
2019-01-08T21:34:45.415Z,4.70
2019-01-08T21:37:14.290Z,4.70
2019-01-08T21:39:42.999Z,4.60
2019-01-08T21:42:11.962Z,4.60
2019-01-08T21:44:42.292Z,4.60
2019-01-08T21:47:11.186Z,4.60
2019-01-08T21:49:42.139Z,4.60
2019-01-08T21:52:11.262Z,4.60
2019-01-08T21:54:39.920Z,4.60
2019-01-08T21:57:08.626Z,4.60
2019-01-08T21:59:37.310Z,4.60
2019-01-08T22:02:06.511Z,4.60
2019-01-08T22:04:35.320Z,4.60
2019-01-08T22:07:04.302Z,4.60
2019-01-08T22:09:32.992Z,4.60
2019-01-08T22:12:01.787Z,4.50
2019-01-08T22:14:30.464Z,4.60
2019-01-08T22:16:59.121Z,4.60
2019-01-08T22:19:28.207Z,4.60
2019-01-08T22:21:57.044Z,4.60
2019-01-08T22:24:25.707Z,4.60
2019-01-08T22:26:54.482Z,4.60
2019-01-08T22:29:23.433Z,4.60
2019-01-08T22:31:52.087Z,4.60
2019-01-08T22:34:21.104Z,4.60
2019-01-08T22:36:49.842Z,4.60
2019-01-08T22:39:18.815Z,4.60
2019-01-08T22:41:47.591Z,4.50
2019-01-08T22:44:16.267Z,4.50
2019-01-08T22:46:45.003Z,4.40
2019-01-08T22:49:13.925Z,4.40
2019-01-08T22:51:42.726Z,4.50
2019-01-08T22:54:11.436Z,4.50
2019-01-08T22:56:40.370Z,4.50
2019-01-08T22:59:09.176Z,4.40
2019-01-08T23:01:42.615Z,4.40
2019-01-08T23:04:12.675Z,4.40
2019-01-08T23:06:41.698Z,4.30
2019-01-08T23:09:11.655Z,4.30
2019-01-08T23:11:41.233Z,4.30
2019-01-08T23:14:09.979Z,4.20
2019-01-08T23:16:38.954Z,4.30
2019-01-08T23:19:08.165Z,4.30
2019-01-08T23:21:37.172Z,4.20
2019-01-08T23:24:06.223Z,4.30
2019-01-08T23:26:35.261Z,4.20
2019-01-08T23:29:04.191Z,4.20
2019-01-08T23:31:33.367Z,4.20
2019-01-08T23:34:02.499Z,4.20
2019-01-08T23:36:31.199Z,4.20
2019-01-08T23:39:00.363Z,4.30
2019-01-08T23:41:29.344Z,4.20
2019-01-08T23:43:58.218Z,4.20
2019-01-08T23:46:26.890Z,4.20
2019-01-08T23:48:55.905Z,4.20
2019-01-08T23:51:24.821Z,4.20
2019-01-08T23:53:54.882Z,4.10
2019-01-08T23:56:24.634Z,4.10
2019-01-08T23:58:53.391Z,4.10
